Time;durP1;ratioP1;P1;durP2;ratioP2;P2;SDS_P1;SDS_P2;PMS_P1;PMS_P2;Temp;Humidity;BMP_temperature;BMP_pressure;BME280_temperature;BME280_humidity;BME280_pressure;Samples;Min_cycle;Max_cycle;Signal;HPM_P1;HPM_P2
2022/10/14 00:00:13;;;;;;;2.30;2.10;;;18.00;68.60;19.20;100762.00;;;;4969218;28;20232;-48
2022/10/14 00:02:39;;;;;;;2.80;2.40;;;18.00;68.50;19.20;100771.00;;;;4968886;28;20191;-47
2022/10/14 00:05:05;;;;;;;2.50;2.30;;;18.00;68.60;19.20;100756.00;;;;4968420;28;20635;-48
2022/10/14 00:07:31;;;;;;;2.73;2.20;;;18.00;68.60;19.10;100757.00;;;;4968745;28;20294;-47
2022/10/14 00:09:57;;;;;;;2.93;2.30;;;18.00;68.60;19.10;100766.00;;;;4954254;28;20254;-48
2022/10/14 00:12:22;;;;;;;2.57;2.37;;;18.00;68.60;19.10;100762.00;;;;4969384;28;20893;-48
2022/10/14 00:14:48;;;;;;;2.33;2.10;;;18.10;68.60;19.10;100764.00;;;;4969045;28;20706;-48
2022/10/14 00:17:14;;;;;;;2.43;2.23;;;18.00;68.60;19.10;100764.00;;;;4968519;28;20217;-47
2022/10/14 00:19:39;;;;;;;2.47;2.13;;;18.00;68.60;19.10;100758.00;;;;4969193;28;20173;-48
2022/10/14 00:22:05;;;;;;;2.50;2.07;;;18.00;68.60;19.10;100752.00;;;;4969488;28;20200;-48
2022/10/14 00:24:31;;;;;;;2.57;2.33;;;18.00;68.60;19.10;100757.00;;;;4971867;28;20169;-47
2022/10/14 00:26:57;;;;;;;3.40;2.30;;;18.00;68.60;19.10;100745.00;;;;4969360;28;20655;-47
2022/10/14 00:29:23;;;;;;;2.77;2.20;;;17.90;68.60;19.10;100752.00;;;;4968656;28;20173;-47
2022/10/14 00:31:50;;;;;;;2.50;2.30;;;18.00;68.70;19.10;100749.00;;;;4968627;28;20177;-49
2022/10/14 00:34:16;;;;;;;2.50;2.30;;;18.00;68.60;19.10;100749.00;;;;4968841;28;20322;-47
2022/10/14 00:36:42;;;;;;;2.93;2.10;;;18.00;68.60;19.10;100755.00;;;;4968624;28;20939;-47
2022/10/14 00:39:08;;;;;;;2.63;2.20;;;17.90;68.50;19.10;100745.00;;;;4969471;28;20172;-49
2022/10/14 00:41:34;;;;;;;2.10;2.00;;;18.00;68.60;19.10;100747.00;;;;4968910;28;20173;-48
2022/10/14 00:44:03;;;;;;;2.37;2.17;;;18.00;68.60;18.80;100742.00;;;;4967487;28;20176;-48
2022/10/14 00:46:37;;;;;;;2.40;2.20;;;17.90;68.50;19.00;100750.00;;;;4968252;28;20192;-48
2022/10/14 00:49:14;;;;;;;2.40;2.20;;;17.90;68.60;19.00;100738.00;;;;4968187;28;20201;-48
2022/10/14 00:51:42;;;;;;;2.50;2.30;;;17.90;68.60;19.00;100719.00;;;;4967778;28;20168;-48
2022/10/14 00:54:08;;;;;;;2.40;2.20;;;17.90;68.60;19.00;100743.00;;;;4967508;28;20193;-49
2022/10/14 00:56:34;;;;;;;2.40;2.20;;;17.90;68.60;19.00;100754.00;;;;4967062;28;20208;-46
2022/10/14 00:59:00;;;;;;;2.23;2.10;;;17.90;68.70;19.00;100752.00;;;;4968453;28;20165;-47
2022/10/14 01:01:26;;;;;;;2.30;2.10;;;17.90;68.70;19.00;100750.00;;;;4951242;28;20828;-47
2022/10/14 01:03:52;;;;;;;2.27;2.17;;;17.90;68.60;19.00;100750.00;;;;4968128;28;20173;-47
2022/10/14 01:06:52;;;;;;;2.47;2.23;;;17.90;68.60;19.00;100746.00;;;;4968481;28;20170;-46
2022/10/14 01:10:11;;;;;;;2.47;2.20;;;17.90;68.60;19.00;100750.00;;;;4968969;28;20177;-48
2022/10/14 01:13:17;;;;;;;2.40;2.20;;;17.80;68.60;19.00;100738.00;;;;4934930;29;20181;-47
2022/10/14 01:16:02;;;;;;;2.50;2.13;;;17.90;68.70;18.90;100748.00;;;;4945805;29;20182;-47
2022/10/14 01:18:46;;;;;;;2.50;2.30;;;17.80;68.70;18.90;100741.00;;;;4950529;28;20235;-47
2022/10/14 01:21:44;;;;;;;2.40;2.20;;;17.90;69.60;18.90;100738.00;;;;4972020;28;20168;-47
2022/10/14 01:24:41;;;;;;;2.40;2.20;;;17.90;68.70;18.90;100743.00;;;;4973066;28;20530;-47
2022/10/14 01:27:35;;;;;;;2.40;2.20;;;17.90;68.70;18.90;100728.00;;;;4972436;28;20699;-47
2022/10/14 01:30:21;;;;;;;2.23;1.90;;;17.90;68.70;18.90;100724.00;;;;4960135;28;20207;-46
2022/10/14 01:33:21;;;;;;;2.53;2.30;;;17.90;68.80;18.90;100713.00;;;;4971620;28;20164;-47
2022/10/14 01:36:09;;;;;;;2.47;2.27;;;17.90;68.90;18.90;100726.00;;;;4970360;28;20200;-47
2022/10/14 01:38:38;;;;;;;3.90;2.20;;;17.80;68.80;18.90;100716.00;;;;4970230;28;20271;-48
2022/10/14 01:41:16;;;;;;;2.30;2.10;;;17.80;69.00;18.90;100714.00;;;;4957273;28;20230;-48
2022/10/14 01:43:42;;;;;;;2.33;2.10;;;17.90;69.10;18.90;100696.00;;;;4970532;28;20165;-48
2022/10/14 01:46:08;;;;;;;2.37;2.00;;;17.90;69.10;18.90;100692.00;;;;4970459;28;20173;-47
2022/10/14 01:48:36;;;;;;;2.30;2.10;;;17.80;69.00;18.90;100699.00;;;;4953901;28;20201;-47
2022/10/14 01:51:05;;;;;;;2.70;2.30;;;17.80;69.00;18.90;100696.00;;;;4969886;28;20181;-47
2022/10/14 01:53:37;;;;;;;2.30;2.10;;;17.80;69.00;18.90;100679.00;;;;4969848;28;20176;-47
2022/10/14 01:56:02;;;;;;;2.33;2.00;;;17.80;69.00;18.90;100688.00;;;;4970565;28;20165;-48
2022/10/14 01:58:30;;;;;;;2.40;2.20;;;17.90;69.10;18.90;100672.00;;;;4969935;28;20584;-46
2022/10/14 02:00:56;;;;;;;2.27;2.07;;;17.90;69.10;18.90;100672.00;;;;4969957;28;20169;-48
2022/10/14 02:03:21;;;;;;;2.20;2.10;;;17.80;69.10;18.90;100672.00;;;;4970489;28;20188;-48
2022/10/14 02:06:03;;;;;;;2.43;2.23;;;17.80;69.00;18.90;100666.00;;;;4971530;28;20192;-48
2022/10/14 02:08:49;;;;;;;2.20;2.10;;;17.80;69.00;18.90;100673.00;;;;4972603;28;20751;-48
2022/10/14 02:11:16;;;;;;;2.40;2.20;;;17.80;69.10;18.90;100675.00;;;;4971898;28;20242;-47
2022/10/14 02:14:04;;;;;;;2.27;2.10;;;17.80;69.10;18.90;100681.00;;;;4953915;28;20277;-51
2022/10/14 02:16:48;;;;;;;2.23;2.13;;;17.80;69.00;18.90;100665.00;;;;4971642;28;20185;-48
2022/10/14 02:19:35;;;;;;;2.10;2.00;;;17.80;69.10;18.90;100669.00;;;;4970884;28;20164;-48
2022/10/14 02:22:15;;;;;;;1.90;1.80;;;17.80;69.00;18.90;100667.00;;;;4969613;28;20211;-48
2022/10/14 02:24:43;;;;;;;2.37;2.17;;;17.80;69.10;18.90;100669.00;;;;4958368;28;20176;-48
2022/10/14 02:27:13;;;;;;;1.90;1.80;;;17.80;69.10;18.90;100659.00;;;;4969318;28;20276;-48
2022/10/14 02:29:41;;;;;;;2.20;2.10;;;17.80;69.10;18.90;100649.00;;;;4954123;28;20272;-48
2022/10/14 02:32:07;;;;;;;2.40;2.20;;;17.80;69.10;18.90;100658.00;;;;4955217;28;20328;-48
2022/10/14 02:34:32;;;;;;;2.00;1.90;;;17.80;69.10;18.90;100656.00;;;;4969380;28;20669;-48
2022/10/14 02:36:58;;;;;;;2.40;2.20;;;17.80;69.10;18.90;100649.00;;;;4969447;28;20224;-48
2022/10/14 02:39:30;;;;;;;2.10;2.00;;;17.80;69.10;18.90;100652.00;;;;4952913;28;20217;-48
2022/10/14 02:41:55;;;;;;;2.60;2.40;;;17.80;69.10;18.90;100647.00;;;;4969399;28;20169;-48
2022/10/14 02:44:21;;;;;;;3.37;2.27;;;17.80;69.10;18.90;100649.00;;;;4968880;28;20239;-48
2022/10/14 02:46:47;;;;;;;2.27;2.10;;;17.80;69.10;18.90;100655.00;;;;4968966;28;20271;-48
2022/10/14 02:49:13;;;;;;;2.10;2.00;;;17.80;69.10;18.90;100645.00;;;;4969935;28;20858;-48
2022/10/14 02:51:39;;;;;;;2.20;2.00;;;17.80;69.10;18.90;100638.00;;;;4968862;28;20252;-48
2022/10/14 02:54:05;;;;;;;2.27;2.17;;;17.80;69.10;18.90;100639.00;;;;4973307;28;20181;-48
2022/10/14 02:56:30;;;;;;;2.03;1.90;;;17.80;69.10;18.90;100636.00;;;;4970134;28;20212;-48
2022/10/14 02:58:56;;;;;;;2.40;2.20;;;17.80;69.10;18.90;100635.00;;;;4970042;28;20160;-48
2022/10/14 03:01:22;;;;;;;2.13;2.00;;;17.80;69.10;18.90;100629.00;;;;4970344;28;20538;-48
2022/10/14 03:03:47;;;;;;;2.13;2.03;;;17.80;69.10;18.90;100617.00;;;;4969291;28;20232;-48
2022/10/14 03:06:13;;;;;;;2.50;2.30;;;17.80;69.10;18.90;100628.00;;;;4969996;28;20176;-48
2022/10/14 03:08:39;;;;;;;2.03;1.90;;;17.70;69.10;18.90;100621.00;;;;4968450;28;20335;-48
2022/10/14 03:11:05;;;;;;;2.10;1.90;;;17.80;69.10;18.90;100628.00;;;;4969850;28;20180;-48
2022/10/14 03:13:30;;;;;;;2.17;1.90;;;17.80;69.10;18.90;100624.00;;;;4969512;28;20266;-48
2022/10/14 03:15:57;;;;;;;2.37;2.20;;;17.70;69.00;18.90;100617.00;;;;4969919;28;20564;-48
2022/10/14 03:18:23;;;;;;;2.80;2.00;;;17.70;69.00;18.90;100619.00;;;;4970207;28;20196;-48
2022/10/14 03:20:48;;;;;;;2.27;2.07;;;17.70;69.00;18.90;100617.00;;;;4969728;28;20976;-48
2022/10/14 03:23:14;;;;;;;2.10;2.00;;;17.70;68.90;18.90;100613.00;;;;4968444;28;20681;-48
2022/10/14 03:25:42;;;;;;;2.20;2.00;;;17.80;69.00;18.80;100616.00;;;;4969639;28;20172;-48
2022/10/14 03:28:08;;;;;;;2.70;2.20;;;17.80;69.10;18.80;100614.00;;;;4969274;28;20204;-48
2022/10/14 03:30:34;;;;;;;6.77;2.40;;;17.70;69.00;18.80;100623.00;;;;4969484;28;20176;-48
2022/10/14 03:32:59;;;;;;;5.13;2.30;;;17.70;69.10;18.80;100605.00;;;;4969247;28;20594;-48
2022/10/14 03:35:25;;;;;;;5.17;2.10;;;17.70;69.00;18.90;100608.00;;;;4969147;28;20232;-48
2022/10/14 03:37:53;;;;;;;8.13;2.30;;;17.70;69.10;18.80;100613.00;;;;4970968;28;20266;-48
2022/10/14 03:40:19;;;;;;;5.13;2.60;;;17.70;69.30;18.80;100621.00;;;;4968590;28;20172;-48
2022/10/14 03:42:45;;;;;;;3.00;2.10;;;17.70;69.10;18.90;100616.00;;;;4969136;28;20192;-48
2022/10/14 03:45:10;;;;;;;3.80;2.03;;;17.70;69.10;18.80;100613.00;;;;4968998;28;20177;-48
2022/10/14 03:47:36;;;;;;;3.53;2.13;;;17.70;69.00;18.90;100607.00;;;;4969561;28;20205;-48
2022/10/14 03:50:03;;;;;;;3.33;2.10;;;17.70;69.00;18.80;100603.00;;;;4969811;28;20783;-47
2022/10/14 03:52:30;;;;;;;5.90;2.27;;;17.70;69.00;18.80;100602.00;;;;4970090;28;20272;-48
2022/10/14 03:54:55;;;;;;;6.23;2.23;;;17.70;69.00;18.80;100607.00;;;;4969783;28;20204;-47
2022/10/14 03:57:21;;;;;;;2.70;2.00;;;17.70;68.90;18.80;100600.00;;;;4969525;28;20294;-48
2022/10/14 03:59:47;;;;;;;2.73;2.00;;;17.70;69.00;18.80;100600.00;;;;4970060;28;20326;-47
2022/10/14 04:02:12;;;;;;;2.43;2.23;;;17.60;68.80;18.80;100592.00;;;;4970071;28;20733;-48
2022/10/14 04:04:38;;;;;;;2.97;2.20;;;17.60;68.80;18.80;100592.00;;;;4966195;28;20285;-48
2022/10/14 04:07:04;;;;;;;4.50;2.03;;;17.60;68.90;18.80;100592.00;;;;4968432;28;20219;-48
2022/10/14 04:09:30;;;;;;;2.80;2.03;;;17.70;69.10;18.80;100595.00;;;;4969475;28;20244;-47
2022/10/14 04:11:56;;;;;;;2.93;1.90;;;17.70;69.10;18.80;100593.00;;;;4969616;28;20176;-48
2022/10/14 04:14:23;;;;;;;3.10;2.20;;;17.60;69.00;18.80;100592.00;;;;4969620;28;20183;-47
2022/10/14 04:16:49;;;;;;;2.40;2.00;;;17.60;69.00;18.80;100588.00;;;;4970108;28;20216;-47
2022/10/14 04:19:14;;;;;;;3.60;2.10;;;17.70;69.10;18.80;100591.00;;;;4970051;28;20175;-47
2022/10/14 04:21:41;;;;;;;3.73;2.00;;;17.70;69.00;18.80;100600.00;;;;4969916;28;20705;-47
2022/10/14 04:24:06;;;;;;;2.30;2.10;;;17.70;69.00;18.80;100597.00;;;;4970028;28;20153;-48
2022/10/14 04:26:32;;;;;;;3.83;2.13;;;17.60;68.90;18.80;100597.00;;;;4969655;28;20191;-48
2022/10/14 04:28:58;;;;;;;2.80;2.50;;;17.60;68.90;18.80;100594.00;;;;4969944;28;20173;-48
2022/10/14 04:31:23;;;;;;;5.47;2.40;;;17.70;69.10;18.80;100592.00;;;;4969267;28;20665;-47
2022/10/14 04:33:49;;;;;;;14.97;3.10;;;17.70;69.20;18.80;100581.00;;;;4969145;28;20203;-45
2022/10/14 04:36:15;;;;;;;33.10;3.53;;;17.60;69.50;18.80;100577.00;;;;4968962;28;20179;-48
2022/10/14 04:38:41;;;;;;;15.20;2.70;;;17.60;69.90;18.80;100573.00;;;;4969532;28;20204;-48
2022/10/14 04:41:07;;;;;;;13.30;2.80;;;17.70;70.10;18.80;100590.00;;;;4970067;28;20674;-47
2022/10/14 04:43:32;;;;;;;6.77;2.90;;;17.60;69.80;18.80;100577.00;;;;4970166;28;20173;-47
2022/10/14 04:45:58;;;;;;;8.37;2.60;;;17.70;69.60;18.70;100589.00;;;;4970351;28;20175;-47
2022/10/14 04:48:24;;;;;;;7.30;2.37;;;17.70;69.60;18.80;100581.00;;;;4967526;28;20209;-47
2022/10/14 04:50:51;;;;;;;8.37;2.83;;;17.70;69.60;18.70;100582.00;;;;4969829;28;20191;-47
2022/10/14 04:53:16;;;;;;;8.13;2.60;;;17.60;69.60;18.80;100587.00;;;;4971645;28;20235;-48
2022/10/14 04:55:44;;;;;;;7.87;2.50;;;17.70;69.60;18.80;100579.00;;;;4973545;28;20173;-48
2022/10/14 04:58:10;;;;;;;6.47;2.47;;;17.70;69.60;18.80;100579.00;;;;4972844;28;20262;-48
2022/10/14 05:00:36;;;;;;;6.73;2.40;;;17.70;69.60;18.70;100577.00;;;;4973221;28;20586;-48
2022/10/14 05:03:01;;;;;;;6.27;2.50;;;17.70;69.60;18.80;100580.00;;;;4973647;28;20677;-47
2022/10/14 05:05:27;;;;;;;14.87;2.70;;;17.60;69.50;18.70;100571.00;;;;4973474;28;20184;-47
2022/10/14 05:07:53;;;;;;;15.50;2.93;;;17.70;69.60;18.80;100568.00;;;;4973757;28;20203;-48
2022/10/14 05:10:19;;;;;;;10.37;3.00;;;17.60;69.50;18.80;100564.00;;;;4974274;28;20173;-47
2022/10/14 05:12:44;;;;;;;10.00;3.10;;;17.70;69.60;18.80;100566.00;;;;4972355;28;20181;-48
2022/10/14 05:15:11;;;;;;;7.67;2.70;;;17.70;70.40;18.70;100560.00;;;;4973556;28;20552;-47
2022/10/14 05:17:38;;;;;;;7.07;3.00;;;17.60;69.50;18.70;100565.00;;;;4973758;28;20212;-47
2022/10/14 05:20:05;;;;;;;8.70;2.73;;;17.60;69.60;18.70;100560.00;;;;4972883;28;20704;-48
2022/10/14 05:22:30;;;;;;;8.00;2.87;;;17.70;69.60;18.70;100544.00;;;;4971726;28;20252;-47
2022/10/14 05:24:56;;;;;;;12.23;3.13;;;17.60;69.50;18.70;100543.00;;;;4972354;28;20269;-46
2022/10/14 05:27:22;;;;;;;8.83;3.17;;;17.60;69.50;18.70;100535.00;;;;4973854;28;20615;-46
2022/10/14 05:29:47;;;;;;;9.00;2.80;;;17.60;69.50;18.70;100547.00;;;;4974602;28;20218;-46
2022/10/14 05:32:14;;;;;;;10.13;2.87;;;17.60;69.50;18.70;100544.00;;;;4974338;28;20199;-47
2022/10/14 05:34:40;;;;;;;5.90;2.50;;;17.60;69.50;18.70;100519.00;;;;4973676;28;20165;-46
2022/10/14 05:37:06;;;;;;;9.97;3.00;;;17.60;69.50;18.70;100538.00;;;;4972657;28;20549;-47
2022/10/14 05:39:31;;;;;;;14.23;4.13;;;17.60;69.50;18.70;100535.00;;;;4974088;28;20180;-46
2022/10/14 05:41:57;;;;;;;13.97;4.67;;;17.60;69.90;18.70;100534.00;;;;4973759;28;20208;-47
2022/10/14 05:44:23;;;;;;;19.43;5.20;;;17.60;70.10;18.70;100531.00;;;;4973351;28;20177;-47
2022/10/14 05:46:49;;;;;;;18.47;5.50;;;17.60;70.50;18.70;100541.00;;;;4973403;28;20198;-47
2022/10/14 05:49:15;;;;;;;15.10;5.10;;;17.60;70.90;18.70;100531.00;;;;4958924;28;20186;-46
2022/10/14 05:51:40;;;;;;;19.67;4.87;;;17.60;70.90;18.70;100539.00;;;;4956237;28;20188;-47
2022/10/14 05:54:06;;;;;;;14.67;5.30;;;17.60;70.90;18.70;100535.00;;;;4963063;28;20211;-46
2022/10/14 05:56:32;;;;;;;13.23;4.50;;;17.60;71.70;18.70;100539.00;;;;4972959;28;20205;-47
2022/10/14 05:58:57;;;;;;;13.93;4.80;;;17.60;70.90;18.70;100535.00;;;;4973322;28;20519;-49
2022/10/14 06:01:23;;;;;;;11.90;4.37;;;17.70;71.00;18.70;100532.00;;;;4973421;28;20173;-46
2022/10/14 06:03:50;;;;;;;13.20;4.67;;;17.60;70.90;18.70;100525.00;;;;4970236;28;20177;-46
2022/10/14 06:06:16;;;;;;;10.97;4.00;;;17.60;70.90;18.70;100536.00;;;;4973279;28;20184;-47
2022/10/14 06:08:41;;;;;;;12.20;4.47;;;17.60;70.80;18.70;100526.00;;;;4971921;28;20585;-46
2022/10/14 06:11:07;;;;;;;8.87;4.20;;;17.60;70.80;18.70;100522.00;;;;4971120;28;20227;-47
2022/10/14 06:13:34;;;;;;;11.17;4.13;;;17.60;70.80;18.70;100520.00;;;;4972168;28;20255;-47
2022/10/14 06:16:04;;;;;;;8.93;3.77;;;17.60;70.80;18.70;100511.00;;;;4973306;28;20271;-46
2022/10/14 06:18:31;;;;;;;8.47;3.53;;;17.60;70.70;18.70;100508.00;;;;4972952;28;20196;-47
2022/10/14 06:20:56;;;;;;;7.53;3.43;;;17.60;70.70;18.70;100516.00;;;;4973050;28;20180;-47
2022/10/14 06:23:22;;;;;;;9.73;3.90;;;17.60;70.60;18.70;100517.00;;;;4972991;28;20173;-46
2022/10/14 06:25:48;;;;;;;6.33;3.53;;;17.60;70.70;18.70;100528.00;;;;4972724;28;20173;-47
2022/10/14 06:28:14;;;;;;;7.03;3.50;;;17.50;70.50;18.70;100520.00;;;;4972931;28;20495;-47
2022/10/14 06:30:39;;;;;;;8.23;3.40;;;17.60;70.60;18.70;100519.00;;;;4971546;28;20173;-48
2022/10/14 06:33:05;;;;;;;6.63;3.07;;;17.60;70.50;18.70;100511.00;;;;4973203;28;20181;-46
2022/10/14 06:35:31;;;;;;;7.30;2.97;;;17.60;70.60;18.60;100491.00;;;;4972441;28;20185;-46
2022/10/14 06:37:57;;;;;;;8.17;3.30;;;17.60;70.50;18.70;100517.00;;;;4971999;28;20214;-48
2022/10/14 06:40:23;;;;;;;6.40;3.20;;;17.60;70.50;18.60;100495.00;;;;4972865;28;20176;-46
2022/10/14 06:42:49;;;;;;;7.53;3.50;;;17.60;70.50;18.60;100508.00;;;;4972763;28;20597;-49
2022/10/14 06:45:15;;;;;;;4.93;2.93;;;17.50;70.30;18.60;100518.00;;;;4972103;28;20183;-46
2022/10/14 06:47:40;;;;;;;5.17;3.27;;;17.60;70.50;18.60;100512.00;;;;4972414;28;20220;-48
2022/10/14 06:50:06;;;;;;;6.97;3.00;;;17.50;70.30;18.60;100515.00;;;;4972699;28;20677;-46
2022/10/14 06:52:32;;;;;;;7.30;3.13;;;17.50;70.20;18.60;100510.00;;;;4972548;28;20176;-46
2022/10/14 06:54:58;;;;;;;4.90;3.03;;;17.50;70.20;18.60;100503.00;;;;4972246;28;20187;-47
2022/10/14 06:57:24;;;;;;;4.83;2.90;;;17.50;70.20;18.60;100511.00;;;;4972286;28;20213;-49
2022/10/14 06:59:49;;;;;;;3.53;2.50;;;17.50;70.20;18.60;100506.00;;;;4972686;28;20256;-46
2022/10/14 07:02:15;;;;;;;4.57;2.80;;;17.50;70.20;18.60;100494.00;;;;4972467;28;20231;-47
2022/10/14 07:04:41;;;;;;;4.83;3.00;;;17.50;70.20;18.60;100508.00;;;;4972099;28;20267;-47
2022/10/14 07:07:07;;;;;;;5.77;2.90;;;17.50;70.30;18.60;100505.00;;;;4972227;28;20675;-47
2022/10/14 07:09:33;;;;;;;5.60;2.93;;;17.50;70.20;18.60;100507.00;;;;4972370;28;20749;-47
2022/10/14 07:11:58;;;;;;;5.13;2.97;;;17.50;70.20;18.60;100516.00;;;;4972442;28;20207;-47
2022/10/14 07:14:24;;;;;;;6.03;3.00;;;17.50;70.20;18.60;100514.00;;;;4972347;28;20180;-46
2022/10/14 07:16:51;;;;;;;4.00;2.93;;;17.50;70.20;18.60;100512.00;;;;4972035;28;20215;-46
2022/10/14 07:19:17;;;;;;;4.00;2.40;;;17.50;70.20;18.60;100504.00;;;;4972342;28;20173;-46
2022/10/14 07:21:45;;;;;;;4.43;2.60;;;17.50;70.10;18.60;100500.00;;;;4972029;28;20184;-46
2022/10/14 07:24:11;;;;;;;5.03;2.90;;;17.50;70.10;18.60;100498.00;;;;4970347;28;20757;-46
2022/10/14 07:26:37;;;;;;;4.50;2.67;;;17.50;70.10;18.60;100503.00;;;;4972051;28;20256;-46
2022/10/14 07:29:04;;;;;;;4.00;2.63;;;17.50;70.10;18.60;100497.00;;;;4971873;28;20177;-46
2022/10/14 07:31:30;;;;;;;4.33;2.80;;;17.50;70.10;18.60;100497.00;;;;4971788;28;20586;-47
2022/10/14 07:33:55;;;;;;;4.47;2.40;;;17.50;70.10;18.60;100504.00;;;;4971404;28;20223;-47
2022/10/14 07:36:21;;;;;;;4.40;2.70;;;17.50;70.10;18.60;100492.00;;;;4971183;28;20386;-46
2022/10/14 07:38:47;;;;;;;6.53;2.73;;;17.50;70.00;18.60;100506.00;;;;4971558;28;20183;-46
2022/10/14 07:41:16;;;;;;;4.73;2.50;;;17.50;70.00;18.60;100502.00;;;;4971479;28;20254;-46
2022/10/14 07:43:47;;;;;;;2.63;2.30;;;17.50;70.10;18.60;100501.00;;;;4970555;28;20690;-47
2022/10/14 07:46:15;;;;;;;3.40;2.50;;;17.50;70.10;18.50;100497.00;;;;4970369;28;20176;-46
2022/10/14 07:48:40;;;;;;;4.93;2.60;;;17.50;70.10;18.50;100502.00;;;;4972136;28;20216;-47
2022/10/14 07:51:07;;;;;;;3.57;2.40;;;17.50;70.00;18.50;100499.00;;;;4971403;28;20630;-46
2022/10/14 07:53:33;;;;;;;3.40;2.40;;;17.50;70.10;18.50;100490.00;;;;4972709;28;20184;-46
2022/10/14 07:55:59;;;;;;;2.80;2.40;;;17.50;70.00;18.50;100499.00;;;;4974085;28;20177;-48
2022/10/14 07:58:29;;;;;;;2.70;2.40;;;17.50;70.00;18.50;100499.00;;;;4971124;28;20339;-47
2022/10/14 08:00:55;;;;;;;2.87;2.43;;;17.50;70.00;18.50;100496.00;;;;4970162;28;20631;-47
2022/10/14 08:03:21;;;;;;;4.00;2.57;;;17.50;70.00;18.50;100502.00;;;;4971347;28;20180;-47
2022/10/14 08:05:48;;;;;;;3.77;2.30;;;17.50;70.00;18.50;100513.00;;;;4953259;28;20184;-47
2022/10/14 08:08:15;;;;;;;2.80;2.20;;;17.50;70.00;18.50;100492.00;;;;4970992;28;20200;-47
2022/10/14 08:10:41;;;;;;;3.37;2.50;;;17.40;69.80;18.50;100503.00;;;;4971542;28;20295;-48
2022/10/14 08:13:06;;;;;;;4.13;2.30;;;17.50;70.00;18.50;100503.00;;;;4971553;28;20267;-47
2022/10/14 08:15:40;;;;;;;3.63;2.50;;;17.50;69.90;18.50;100491.00;;;;4970803;28;20256;-48
2022/10/14 08:18:06;;;;;;;4.67;2.40;;;17.40;69.80;18.50;100491.00;;;;4969733;28;20275;-48
2022/10/14 08:20:32;;;;;;;3.70;2.60;;;17.50;69.90;18.50;100493.00;;;;4970994;28;20169;-47
2022/10/14 08:22:58;;;;;;;3.37;2.50;;;17.40;69.80;18.50;100482.00;;;;4970971;28;20178;-48
2022/10/14 08:25:24;;;;;;;3.70;2.20;;;17.40;69.70;18.50;100488.00;;;;4970136;28;20551;-48
2022/10/14 08:27:50;;;;;;;3.67;2.37;;;17.50;69.90;18.50;100474.00;;;;4969077;28;20196;-48
2022/10/14 08:30:16;;;;;;;3.27;2.40;;;17.40;69.90;18.50;100478.00;;;;4971397;28;20184;-48
2022/10/14 08:32:42;;;;;;;2.60;2.23;;;17.40;69.90;18.50;100459.00;;;;4970920;28;20203;-47
2022/10/14 08:35:08;;;;;;;2.97;2.20;;;17.40;69.80;18.50;100459.00;;;;4971025;28;20180;-48
2022/10/14 08:37:35;;;;;;;2.50;2.30;;;17.50;70.00;18.50;100463.00;;;;4970728;28;20724;-47
2022/10/14 08:40:01;;;;;;;3.07;2.40;;;17.40;69.80;18.50;100454.00;;;;4970878;28;20177;-47
2022/10/14 08:42:53;;;;;;;2.40;2.20;;;17.40;69.80;18.50;100452.00;;;;4970895;28;20178;-48
2022/10/14 08:45:32;;;;;;;3.03;2.30;;;17.40;69.80;18.50;100445.00;;;;4969185;28;20376;-47
2022/10/14 08:47:59;;;;;;;2.80;2.10;;;17.40;69.80;18.50;100450.00;;;;4969678;28;20566;-48
2022/10/14 08:50:35;;;;;;;2.40;2.20;;;17.40;69.70;18.50;100444.00;;;;4953318;28;20216;-48
2022/10/14 08:53:15;;;;;;;2.77;2.20;;;17.40;69.80;18.50;100444.00;;;;4969989;28;20176;-48
2022/10/14 08:55:53;;;;;;;3.70;2.27;;;17.40;69.70;18.50;100437.00;;;;4969532;28;20162;-49
2022/10/14 08:58:30;;;;;;;3.37;2.27;;;17.40;69.80;18.50;100444.00;;;;4953866;28;20213;-48
2022/10/14 09:01:02;;;;;;;2.97;2.13;;;17.40;69.80;18.50;100434.00;;;;4954177;28;20629;-47
2022/10/14 09:03:32;;;;;;;2.93;2.27;;;17.50;69.80;18.50;100434.00;;;;4969565;28;20219;-48
2022/10/14 09:06:03;;;;;;;3.23;2.40;;;17.40;69.80;18.40;100434.00;;;;4970427;28;20211;-48
2022/10/14 09:08:44;;;;;;;2.30;2.10;;;17.40;69.80;18.50;100413.00;;;;4969150;28;20204;-46
2022/10/14 09:11:28;;;;;;;2.03;1.83;;;17.50;69.90;18.50;100422.00;;;;4970603;28;20177;-48
2022/10/14 09:13:56;;;;;;;2.77;2.20;;;17.40;69.80;18.50;100436.00;;;;4952959;28;20630;-48
2022/10/14 09:16:25;;;;;;;2.60;2.20;;;17.40;69.80;18.50;100430.00;;;;4970116;28;20191;-48
2022/10/14 09:19:26;;;;;;;2.73;2.23;;;17.40;69.80;18.50;100421.00;;;;4969117;28;20185;-48
2022/10/14 09:21:54;;;;;;;2.73;2.20;;;17.50;69.80;18.50;100422.00;;;;4971453;28;20177;-46
2022/10/14 09:24:31;;;;;;;2.53;2.30;;;17.40;69.70;18.50;100421.00;;;;4970138;28;20173;-47
2022/10/14 09:27:09;;;;;;;2.93;2.10;;;17.40;69.70;18.50;100417.00;;;;4968863;28;20620;-48
2022/10/14 09:29:46;;;;;;;2.30;2.10;;;17.40;69.70;18.50;100409.00;;;;4970112;28;20321;-48
2022/10/14 09:32:17;;;;;;;3.20;2.30;;;17.40;69.70;18.50;100412.00;;;;4970154;28;20538;-48
2022/10/14 09:34:48;;;;;;;2.90;2.10;;;17.40;69.80;18.50;100410.00;;;;4952842;28;20207;-47
2022/10/14 09:37:29;;;;;;;2.27;2.07;;;17.40;69.70;18.50;100408.00;;;;4955098;28;20204;-47
2022/10/14 09:40:02;;;;;;;2.30;2.10;;;17.40;69.80;18.50;100393.00;;;;4973629;28;20178;-48
2022/10/14 09:43:01;;;;;;;2.10;1.90;;;17.50;69.90;18.50;100398.00;;;;4957130;28;20172;-48
2022/10/14 09:45:29;;;;;;;2.33;2.13;;;17.50;69.80;18.50;100409.00;;;;4972327;28;20161;-48
2022/10/14 09:47:58;;;;;;;2.40;2.20;;;17.40;69.70;18.50;100411.00;;;;4972033;28;20206;-53
2022/10/14 09:50:37;;;;;;;2.47;2.10;;;17.50;69.90;18.50;100399.00;;;;4972328;28;20176;-48
2022/10/14 09:53:12;;;;;;;2.53;2.13;;;17.40;69.80;18.50;100405.00;;;;4957322;28;20202;-48
2022/10/14 09:55:46;;;;;;;2.10;1.90;;;17.50;69.90;18.50;100402.00;;;;4957202;28;20308;-48
2022/10/14 09:58:15;;;;;;;3.17;2.20;;;17.50;69.90;18.50;100403.00;;;;4972045;28;20214;-48
2022/10/14 10:00:41;;;;;;;3.30;2.20;;;17.50;69.90;18.50;100334.00;;;;4973445;28;20639;-48
2022/10/14 10:03:08;;;;;;;2.63;2.00;;;17.50;69.80;18.50;100401.00;;;;4973456;28;20180;-48
2022/10/14 10:05:34;;;;;;;2.30;2.10;;;17.50;69.80;18.50;100387.00;;;;4955931;28;20267;-48
2022/10/14 10:08:12;;;;;;;3.10;2.03;;;17.50;69.80;18.50;100390.00;;;;4955919;28;20240;-48
2022/10/14 10:10:39;;;;;;;2.03;1.90;;;17.50;69.90;18.50;100399.00;;;;4973559;28;20214;-48
2022/10/14 10:13:21;;;;;;;2.63;2.20;;;17.50;69.80;18.50;100384.00;;;;4973181;28;20801;-48
2022/10/14 10:15:57;;;;;;;2.00;1.90;;;17.50;70.00;18.50;100376.00;;;;4972090;28;20164;-48
2022/10/14 10:18:23;;;;;;;2.30;2.10;;;17.40;69.80;18.60;100382.00;;;;4971975;28;20553;-48
2022/10/14 10:21:24;;;;;;;2.20;2.00;;;17.40;69.80;18.60;100385.00;;;;4972747;28;20179;-48
2022/10/14 10:23:59;;;;;;;2.23;2.03;;;17.50;69.90;18.50;100400.00;;;;4940414;28;20189;-48
2022/10/14 10:26:33;;;;;;;2.10;1.70;;;17.50;69.90;18.50;100388.00;;;;4972619;28;20167;-49
2022/10/14 10:29:01;;;;;;;2.20;2.00;;;17.50;70.00;18.60;100383.00;;;;4971593;28;20176;-48
2022/10/14 10:31:52;;;;;;;2.73;2.10;;;17.50;69.90;18.60;100371.00;;;;4972476;28;20542;-49
2022/10/14 10:34:50;;;;;;;2.30;2.10;;;17.50;70.00;18.60;100389.00;;;;4971870;28;20180;-47
2022/10/14 10:37:39;;;;;;;2.97;2.03;;;17.50;69.90;18.50;100373.00;;;;4974408;28;20240;-48
2022/10/14 10:40:15;;;;;;;2.20;2.00;;;17.50;69.90;18.50;100373.00;;;;4972077;28;20204;-48
2022/10/14 10:43:05;;;;;;;2.10;1.90;;;17.50;70.00;18.60;100373.00;;;;4971506;28;20163;-48
2022/10/14 10:45:48;;;;;;;2.20;2.00;;;17.50;70.00;18.50;100362.00;;;;4972849;28;20307;-48
2022/10/14 10:48:19;;;;;;;2.13;1.93;;;17.50;70.00;18.50;100362.00;;;;4971076;28;20685;-49
2022/10/14 10:50:54;;;;;;;2.20;2.00;;;17.50;70.00;18.60;100363.00;;;;4971680;28;20284;-48
2022/10/14 10:54:08;;;;;;;2.73;2.10;;;17.50;70.00;18.60;100352.00;;;;4955498;28;20193;-47
2022/10/14 10:56:47;;;;;;;2.00;1.90;;;17.50;70.00;18.60;100358.00;;;;4967242;28;20222;-46
2022/10/14 10:59:32;;;;;;;2.00;1.90;;;17.50;70.00;18.60;100342.00;;;;4971442;28;20159;-47